N8097H PHKO-PHNL
Flight info
| Callsign | N8097H |
|---|---|
| Flight time | 0h 48m |
| Altitude | 4000 |
| Route | KOA V20 HOKLA JULLE5 PHNL |
| Aircraft | TBM8/L-GNS530/S |
Departure
| Time | 2026-04-23 23:19 |
|---|---|
| Airport | Ellison Onizuka Kona International Airport at Keāhole (PHKO) |
Arrival
| Time | 2026-04-24 00:07 |
|---|---|
| Airport | Daniel K. Inouye International Airport (PHNL) |
| Time | Latitude | Longitude | Altitude | Speed | Heading |
|---|---|---|---|---|---|
| 2026-04-23 23:05 | 19.73723 | -156.04209 | 60 ft | 0 kts | 95° |
| 2026-04-23 23:15 | 19.73726 | -156.04207 | 41 ft | 5 kts | 346° |
| 2026-04-23 23:15 | 19.73821 | -156.04295 | 37 ft | 25 kts | 343° |
| 2026-04-23 23:15 | 19.74027 | -156.04298 | 38 ft | 35 kts | 5° |
| 2026-04-23 23:15 | 19.74198 | -156.04275 | 39 ft | 16 kts | 13° |
| 2026-04-23 23:16 | 19.74295 | -156.04280 | 41 ft | 23 kts | 2° |
| 2026-04-23 23:16 | 19.74427 | -156.04260 | 44 ft | 12 kts | 4° |
| 2026-04-23 23:16 | 19.74585 | -156.04245 | 44 ft | 32 kts | 4° |
| 2026-04-23 23:16 | 19.74740 | -156.04230 | 46 ft | 18 kts | 9° |
| 2026-04-23 23:17 | 19.74905 | -156.04220 | 47 ft | 18 kts | 2° |
| 2026-04-23 23:17 | 19.75104 | -156.04195 | 42 ft | 49 kts | 13° |
| 2026-04-23 23:17 | 19.75268 | -156.04187 | 41 ft | 12 kts | 5° |
| 2026-04-23 23:17 | 19.75316 | -156.04187 | 41 ft | 3 kts | 350° |
| 2026-04-23 23:18 | 19.75361 | -156.04231 | 40 ft | 19 kts | 303° |
| 2026-04-23 23:18 | 19.75309 | -156.04443 | 38 ft | 31 kts | 187° |
| 2026-04-23 23:18 | 19.74946 | -156.04472 | 41 ft | 81 kts | 185° |
| 2026-04-23 23:18 | 19.74260 | -156.04521 | 176 ft | 113 kts | 186° |
| 2026-04-23 23:19 | 19.73515 | -156.04572 | 681 ft | 118 kts | 194° |
| 2026-04-23 23:19 | 19.72647 | -156.04696 | 1310 ft | 119 kts | 188° |
| 2026-04-23 23:19 | 19.71831 | -156.04782 | 2076 ft | 114 kts | 193° |
| 2026-04-23 23:19 | 19.71082 | -156.04987 | 2676 ft | 114 kts | 206° |
| 2026-04-23 23:20 | 19.70382 | -156.05307 | 3157 ft | 116 kts | 197° |
| 2026-04-23 23:20 | 19.69568 | -156.05304 | 3618 ft | 117 kts | 175° |
| 2026-04-23 23:20 | 19.68727 | -156.05441 | 3957 ft | 134 kts | 202° |
| 2026-04-23 23:20 | 19.68069 | -156.06145 | 4405 ft | 135 kts | 253° |
| 2026-04-23 23:21 | 19.68151 | -156.07071 | 4966 ft | 132 kts | 295° |
| 2026-04-23 23:21 | 19.68842 | -156.07846 | 5034 ft | 168 kts | 328° |
| 2026-04-23 23:21 | 19.70017 | -156.08232 | 5291 ft | 178 kts | 350° |
| 2026-04-23 23:21 | 19.71285 | -156.08407 | 5593 ft | 185 kts | 356° |
| 2026-04-23 23:22 | 19.72556 | -156.08420 | 6040 ft | 187 kts | 0° |
| 2026-04-23 23:22 | 19.73902 | -156.08402 | 6248 ft | 198 kts | 358° |
| 2026-04-23 23:22 | 19.75218 | -156.08596 | 6786 ft | 187 kts | 336° |
| 2026-04-23 23:22 | 19.76407 | -156.09069 | 7314 ft | 180 kts | 342° |
| 2026-04-23 23:23 | 19.77561 | -156.09521 | 7854 ft | 174 kts | 334° |
| 2026-04-23 23:23 | 19.78582 | -156.10139 | 8389 ft | 169 kts | 321° |
| 2026-04-23 23:23 | 19.79463 | -156.10939 | 8942 ft | 164 kts | 317° |
| 2026-04-23 23:23 | 19.80311 | -156.11725 | 9515 ft | 158 kts | 317° |
| 2026-04-23 23:24 | 19.81042 | -156.12398 | 10374 ft | 123 kts | 319° |
| 2026-04-23 23:24 | 19.81635 | -156.12919 | 10925 ft | 107 kts | 318° |
| 2026-04-23 23:24 | 19.82284 | -156.13491 | 10974 ft | 138 kts | 321° |
| 2026-04-23 23:24 | 19.83133 | -156.14194 | 10995 ft | 170 kts | 322° |
| 2026-04-23 23:25 | 19.84141 | -156.15034 | 10997 ft | 197 kts | 322° |
| 2026-04-23 23:25 | 19.85268 | -156.15991 | 10995 ft | 216 kts | 321° |
| 2026-04-23 23:25 | 19.86460 | -156.17014 | 10988 ft | 229 kts | 321° |
| 2026-04-23 23:25 | 19.87720 | -156.18103 | 10985 ft | 238 kts | 321° |
| 2026-04-23 23:26 | 19.89015 | -156.19228 | 10983 ft | 243 kts | 321° |
| 2026-04-23 23:26 | 19.90334 | -156.20374 | 10981 ft | 246 kts | 321° |
| 2026-04-23 23:26 | 19.91666 | -156.21531 | 10976 ft | 249 kts | 321° |
| 2026-04-23 23:26 | 19.93007 | -156.22696 | 10975 ft | 250 kts | 321° |
| 2026-04-23 23:27 | 19.94354 | -156.23868 | 10978 ft | 251 kts | 321° |
| 2026-04-23 23:27 | 19.95704 | -156.25042 | 10977 ft | 251 kts | 321° |
| 2026-04-23 23:27 | 19.97057 | -156.26219 | 10974 ft | 251 kts | 321° |
| 2026-04-23 23:27 | 19.98407 | -156.27404 | 10975 ft | 252 kts | 321° |
| 2026-04-23 23:28 | 19.99751 | -156.28596 | 10973 ft | 252 kts | 320° |
| 2026-04-23 23:28 | 20.01103 | -156.29740 | 10972 ft | 252 kts | 322° |
| 2026-04-23 23:28 | 20.02464 | -156.30913 | 10971 ft | 252 kts | 320° |
| 2026-04-23 23:28 | 20.03800 | -156.32115 | 10974 ft | 252 kts | 320° |
| 2026-04-23 23:29 | 20.05140 | -156.33315 | 10970 ft | 252 kts | 320° |
| 2026-04-23 23:29 | 20.06487 | -156.34508 | 10974 ft | 252 kts | 320° |
| 2026-04-23 23:29 | 20.07834 | -156.35701 | 10975 ft | 252 kts | 320° |
| 2026-04-23 23:29 | 20.09180 | -156.36896 | 10977 ft | 252 kts | 320° |
| 2026-04-23 23:30 | 20.10526 | -156.38093 | 10974 ft | 252 kts | 320° |
| 2026-04-23 23:30 | 20.11871 | -156.39289 | 10972 ft | 252 kts | 320° |
| 2026-04-23 23:30 | 20.13200 | -156.40469 | 10971 ft | 252 kts | 320° |
| 2026-04-23 23:30 | 20.14545 | -156.41664 | 10975 ft | 252 kts | 320° |
| 2026-04-23 23:31 | 20.15891 | -156.42861 | 10979 ft | 252 kts | 320° |
| 2026-04-23 23:31 | 20.17238 | -156.44057 | 10982 ft | 252 kts | 320° |
| 2026-04-23 23:31 | 20.18582 | -156.45252 | 10980 ft | 252 kts | 320° |
| 2026-04-23 23:31 | 20.19928 | -156.46449 | 10981 ft | 252 kts | 320° |
| 2026-04-23 23:32 | 20.21272 | -156.47647 | 10982 ft | 252 kts | 320° |
| 2026-04-23 23:32 | 20.22508 | -156.48958 | 10981 ft | 252 kts | 304° |
| 2026-04-23 23:32 | 20.23278 | -156.50635 | 10985 ft | 252 kts | 292° |
| 2026-04-23 23:32 | 20.23921 | -156.52344 | 10986 ft | 252 kts | 295° |
| 2026-04-23 23:33 | 20.24800 | -156.53954 | 10984 ft | 252 kts | 306° |
| 2026-04-23 23:33 | 20.25887 | -156.55418 | 10983 ft | 252 kts | 309° |
| 2026-04-23 23:33 | 20.26966 | -156.56889 | 10983 ft | 252 kts | 307° |
| 2026-04-23 23:33 | 20.27993 | -156.58400 | 10986 ft | 252 kts | 306° |
| 2026-04-23 23:34 | 20.29020 | -156.59910 | 10989 ft | 252 kts | 307° |
| 2026-04-23 23:34 | 20.30062 | -156.61411 | 10988 ft | 252 kts | 307° |
| 2026-04-23 23:34 | 20.31103 | -156.62912 | 10989 ft | 252 kts | 307° |
| 2026-04-23 23:34 | 20.32143 | -156.64416 | 10990 ft | 252 kts | 307° |
| 2026-04-23 23:35 | 20.33180 | -156.65920 | 10987 ft | 252 kts | 307° |
| 2026-04-23 23:35 | 20.34215 | -156.67392 | 10989 ft | 252 kts | 307° |
| 2026-04-23 23:35 | 20.35236 | -156.68912 | 10990 ft | 252 kts | 306° |
| 2026-04-23 23:35 | 20.36263 | -156.70423 | 10988 ft | 252 kts | 307° |
| 2026-04-23 23:36 | 20.37312 | -156.71918 | 10987 ft | 252 kts | 307° |
| 2026-04-23 23:36 | 20.38353 | -156.73419 | 10989 ft | 252 kts | 307° |
| 2026-04-23 23:36 | 20.39387 | -156.74923 | 10990 ft | 252 kts | 307° |
| 2026-04-23 23:36 | 20.40421 | -156.76427 | 10989 ft | 251 kts | 307° |
| 2026-04-23 23:37 | 20.41457 | -156.77929 | 10986 ft | 252 kts | 307° |
| 2026-04-23 23:37 | 20.42492 | -156.79431 | 10983 ft | 251 kts | 307° |
| 2026-04-23 23:37 | 20.43526 | -156.80934 | 10987 ft | 251 kts | 307° |
| 2026-04-23 23:37 | 20.44548 | -156.82417 | 10987 ft | 251 kts | 307° |
| 2026-04-23 23:38 | 20.45580 | -156.83919 | 10991 ft | 251 kts | 307° |
| 2026-04-23 23:38 | 20.46615 | -156.85422 | 10995 ft | 251 kts | 307° |
| 2026-04-23 23:38 | 20.47649 | -156.86926 | 11000 ft | 251 kts | 307° |
| 2026-04-23 23:38 | 20.48681 | -156.88428 | 11006 ft | 251 kts | 307° |
| 2026-04-23 23:39 | 20.49715 | -156.89931 | 11006 ft | 251 kts | 307° |
| 2026-04-23 23:39 | 20.50750 | -156.91434 | 11012 ft | 252 kts | 307° |
| 2026-04-23 23:39 | 20.51784 | -156.92939 | 11014 ft | 252 kts | 307° |
| 2026-04-23 23:39 | 20.52818 | -156.94445 | 11018 ft | 252 kts | 307° |
| 2026-04-23 23:40 | 20.53838 | -156.95931 | 11024 ft | 252 kts | 307° |
| 2026-04-23 23:40 | 20.54874 | -156.97439 | 11025 ft | 252 kts | 307° |
| 2026-04-23 23:40 | 20.55908 | -156.98946 | 11028 ft | 252 kts | 307° |
| 2026-04-23 23:40 | 20.56943 | -157.00453 | 11033 ft | 252 kts | 307° |
| 2026-04-23 23:41 | 20.57977 | -157.01961 | 11032 ft | 252 kts | 307° |
| 2026-04-23 23:41 | 20.59011 | -157.03467 | 11034 ft | 252 kts | 307° |
| 2026-04-23 23:41 | 20.60045 | -157.04976 | 11037 ft | 252 kts | 307° |
| 2026-04-23 23:41 | 20.61080 | -157.06489 | 10949 ft | 255 kts | 306° |
| 2026-04-23 23:42 | 20.62141 | -157.08033 | 10769 ft | 260 kts | 307° |
| 2026-04-23 23:42 | 20.63202 | -157.09579 | 10590 ft | 263 kts | 306° |
| 2026-04-23 23:42 | 20.64284 | -157.11157 | 10405 ft | 264 kts | 306° |
| 2026-04-23 23:42 | 20.65370 | -157.12742 | 10222 ft | 265 kts | 306° |
| 2026-04-23 23:43 | 20.66459 | -157.14336 | 9962 ft | 268 kts | 306° |
| 2026-04-23 23:43 | 20.67563 | -157.15950 | 9609 ft | 271 kts | 306° |
| 2026-04-23 23:43 | 20.68675 | -157.17578 | 9253 ft | 272 kts | 306° |
| 2026-04-23 23:43 | 20.69794 | -157.19211 | 8902 ft | 272 kts | 306° |
| 2026-04-23 23:44 | 20.70909 | -157.20841 | 8359 ft | 278 kts | 306° |
| 2026-04-23 23:44 | 20.72057 | -157.22515 | 8009 ft | 274 kts | 306° |
| 2026-04-23 23:44 | 20.73142 | -157.24107 | 8007 ft | 261 kts | 306° |
| 2026-04-23 23:44 | 20.74188 | -157.25636 | 7996 ft | 254 kts | 306° |
| 2026-04-23 23:45 | 20.75219 | -157.27147 | 7993 ft | 250 kts | 306° |
| 2026-04-23 23:45 | 20.76236 | -157.28641 | 7984 ft | 247 kts | 306° |
| 2026-04-23 23:45 | 20.77247 | -157.30122 | 7982 ft | 246 kts | 306° |
| 2026-04-23 23:45 | 20.78080 | -157.31706 | 7974 ft | 246 kts | 286° |
| 2026-04-23 23:46 | 20.78092 | -157.33511 | 7966 ft | 246 kts | 255° |
| 2026-04-23 23:46 | 20.77222 | -157.35064 | 7966 ft | 246 kts | 223° |
| 2026-04-23 23:46 | 20.75729 | -157.35917 | 7965 ft | 246 kts | 192° |
| 2026-04-23 23:46 | 20.74046 | -157.35830 | 7967 ft | 245 kts | 161° |
| 2026-04-23 23:47 | 20.72651 | -157.34834 | 7970 ft | 243 kts | 130° |
| 2026-04-23 23:47 | 20.71949 | -157.33244 | 7975 ft | 242 kts | 99° |
| 2026-04-23 23:47 | 20.72116 | -157.31479 | 7978 ft | 242 kts | 68° |
| 2026-04-23 23:47 | 20.73119 | -157.30065 | 7986 ft | 242 kts | 37° |
| 2026-04-23 23:48 | 20.74660 | -157.29395 | 7995 ft | 241 kts | 11° |
| 2026-04-23 23:48 | 20.76314 | -157.29097 | 7999 ft | 242 kts | 3° |
| 2026-04-23 23:48 | 20.77943 | -157.29484 | 7997 ft | 243 kts | 332° |
| 2026-04-23 23:48 | 20.79149 | -157.30725 | 7996 ft | 245 kts | 301° |
| 2026-04-23 23:49 | 20.80246 | -157.34157 | 7982 ft | 244 kts | 295° |
| 2026-04-23 23:49 | 20.81196 | -157.35654 | 7983 ft | 244 kts | 310° |
| 2026-04-23 23:49 | 20.82280 | -157.37051 | 7984 ft | 244 kts | 309° |
| 2026-04-23 23:50 | 20.83296 | -157.38509 | 7987 ft | 245 kts | 305° |
| 2026-04-23 23:50 | 20.84261 | -157.40007 | 7988 ft | 245 kts | 305° |
| 2026-04-23 23:50 | 20.85228 | -157.41476 | 7984 ft | 245 kts | 306° |
| 2026-04-23 23:50 | 20.86221 | -157.42955 | 7987 ft | 245 kts | 306° |
| 2026-04-23 23:51 | 20.87211 | -157.44436 | 7990 ft | 245 kts | 306° |
| 2026-04-23 23:51 | 20.88196 | -157.45919 | 7986 ft | 245 kts | 306° |
| 2026-04-23 23:51 | 20.89180 | -157.47403 | 7988 ft | 245 kts | 306° |
| 2026-04-23 23:51 | 20.90166 | -157.48885 | 7987 ft | 244 kts | 306° |
| 2026-04-23 23:52 | 20.91152 | -157.50364 | 7990 ft | 245 kts | 306° |
| 2026-04-23 23:52 | 20.92138 | -157.51850 | 7991 ft | 245 kts | 306° |
| 2026-04-23 23:52 | 20.93110 | -157.53311 | 7991 ft | 245 kts | 306° |
| 2026-04-23 23:52 | 20.94094 | -157.54793 | 7986 ft | 244 kts | 306° |
| 2026-04-23 23:53 | 20.95078 | -157.56275 | 7991 ft | 245 kts | 306° |
| 2026-04-23 23:53 | 20.96015 | -157.57795 | 7993 ft | 245 kts | 297° |
| 2026-04-23 23:53 | 20.96573 | -157.59518 | 7992 ft | 245 kts | 288° |
| 2026-04-23 23:53 | 20.97118 | -157.61247 | 7993 ft | 245 kts | 290° |
| 2026-04-23 23:54 | 20.97693 | -157.62969 | 7987 ft | 246 kts | 290° |
| 2026-04-23 23:54 | 20.98248 | -157.64697 | 7983 ft | 246 kts | 289° |
| 2026-04-23 23:54 | 20.98793 | -157.66432 | 7980 ft | 246 kts | 289° |
| 2026-04-23 23:54 | 20.99345 | -157.68165 | 7980 ft | 246 kts | 290° |
| 2026-04-23 23:55 | 20.99896 | -157.69897 | 7977 ft | 246 kts | 289° |
| 2026-04-23 23:55 | 21.00441 | -157.71604 | 7981 ft | 246 kts | 290° |
| 2026-04-23 23:55 | 21.00991 | -157.73334 | 7980 ft | 246 kts | 289° |
| 2026-04-23 23:55 | 21.01544 | -157.75065 | 7982 ft | 246 kts | 289° |
| 2026-04-23 23:56 | 21.02094 | -157.76796 | 7974 ft | 246 kts | 289° |
| 2026-04-23 23:56 | 21.02652 | -157.78555 | 7810 ft | 252 kts | 289° |
| 2026-04-23 23:56 | 21.03221 | -157.80341 | 7641 ft | 255 kts | 289° |
| 2026-04-23 23:56 | 21.03814 | -157.82134 | 7481 ft | 255 kts | 295° |
| 2026-04-23 23:57 | 21.04734 | -157.83749 | 7309 ft | 255 kts | 298° |
| 2026-04-23 23:57 | 21.05208 | -157.85578 | 7139 ft | 257 kts | 279° |
| 2026-04-23 23:57 | 21.05507 | -157.87460 | 6977 ft | 256 kts | 284° |
| 2026-04-23 23:57 | 21.06032 | -157.89249 | 6817 ft | 256 kts | 292° |
| 2026-04-23 23:58 | 21.06659 | -157.91032 | 6652 ft | 256 kts | 291° |
| 2026-04-23 23:58 | 21.07222 | -157.92838 | 6493 ft | 256 kts | 289° |
| 2026-04-23 23:58 | 21.07694 | -157.94675 | 6320 ft | 257 kts | 280° |
| 2026-04-23 23:58 | 21.07794 | -157.96576 | 6135 ft | 255 kts | 280° |
| 2026-04-23 23:59 | 21.08493 | -157.98293 | 5801 ft | 257 kts | 308° |
| 2026-04-23 23:59 | 21.09740 | -157.99655 | 5598 ft | 253 kts | 317° |
| 2026-04-23 23:59 | 21.10975 | -158.01011 | 5259 ft | 251 kts | 316° |
| 2026-04-23 23:59 | 21.12011 | -158.02187 | 4661 ft | 191 kts | 321° |
| 2026-04-24 00:00 | 21.12774 | -158.03298 | 4252 ft | 204 kts | 290° |
| 2026-04-24 00:00 | 21.12927 | -158.04841 | 4221 ft | 205 kts | 276° |
| 2026-04-24 00:00 | 21.13272 | -158.06089 | 4109 ft | 155 kts | 299° |
| 2026-04-24 00:00 | 21.13700 | -158.07039 | 4002 ft | 131 kts | 303° |
| 2026-04-24 00:01 | 21.14155 | -158.08079 | 3807 ft | 176 kts | 297° |
| 2026-04-24 00:01 | 21.14682 | -158.09398 | 3587 ft | 209 kts | 297° |
| 2026-04-24 00:01 | 21.15315 | -158.10896 | 3420 ft | 225 kts | 301° |
| 2026-04-24 00:01 | 21.16262 | -158.12128 | 3488 ft | 210 kts | 329° |
| 2026-04-24 00:02 | 21.17604 | -158.12526 | 3539 ft | 197 kts | 5° |
| 2026-04-24 00:02 | 21.18801 | -158.11920 | 3437 ft | 197 kts | 52° |
| 2026-04-24 00:02 | 21.19451 | -158.10605 | 3242 ft | 203 kts | 67° |
| 2026-04-24 00:02 | 21.20065 | -158.09385 | 2967 ft | 175 kts | 52° |
| 2026-04-24 00:03 | 21.20843 | -158.08272 | 2650 ft | 202 kts | 54° |
| 2026-04-24 00:03 | 21.21557 | -158.06947 | 2655 ft | 206 kts | 60° |
| 2026-04-24 00:03 | 21.22405 | -158.05691 | 2607 ft | 210 kts | 49° |
| 2026-04-24 00:03 | 21.23367 | -158.04503 | 2515 ft | 213 kts | 49° |
| 2026-04-24 00:04 | 21.24204 | -158.03308 | 2359 ft | 195 kts | 53° |
| 2026-04-24 00:04 | 21.24968 | -158.02200 | 2145 ft | 184 kts | 53° |
| 2026-04-24 00:04 | 21.25746 | -158.01115 | 2020 ft | 178 kts | 52° |
| 2026-04-24 00:04 | 21.26505 | -158.00073 | 1835 ft | 177 kts | 52° |
| 2026-04-24 00:05 | 21.27240 | -157.98998 | 1512 ft | 179 kts | 53° |
| 2026-04-24 00:05 | 21.27826 | -157.98002 | 1170 ft | 141 kts | 57° |
| 2026-04-24 00:05 | 21.28453 | -157.97129 | 979 ft | 167 kts | 52° |
| 2026-04-24 00:05 | 21.29104 | -157.96296 | 839 ft | 135 kts | 56° |
| 2026-04-24 00:06 | 21.29650 | -157.95465 | 722 ft | 129 kts | 55° |
| 2026-04-24 00:06 | 21.30232 | -157.94624 | 632 ft | 158 kts | 51° |
| 2026-04-24 00:06 | 21.30898 | -157.93641 | 474 ft | 150 kts | 57° |
| 2026-04-24 00:06 | 21.31402 | -157.92943 | 220 ft | 84 kts | 58° |
| 2026-04-24 00:07 | 21.31765 | -157.92435 | 59 ft | 94 kts | 52° |
| 2026-04-24 00:07 | 21.32106 | -157.91947 | 16 ft | 51 kts | 71° |
| 2026-04-24 00:07 | 21.32297 | -157.91672 | 12 ft | 40 kts | 47° |